Alto Sucuriu, Brazil
Current Conditions -  °F | °C
As of 7:00 AM on Sunday 26 Oct 2014 (Local Time) from SBCG Reporting Station
Scattered Clouds Scattered Clouds  
Wind Chill: 68°   Ceiling: Unl
Heat Index: 68°   Visibility: 6mi
Dew Point: 64°   Wind: 9mph
Humidity: 88%   Direction: 70°ENE
Pressure: 29.91"   Gusts: NA
Location:  19.32°S, 52.73°W
Report Text: SBCG 261000Z 07008KT 9999 FEW005 SCT100 20/18 Q1013
Loading
Personal Weather Stations






























Interactive Weather Map
Tropical Storm Tracking
New forecast layout! Learn more

10-Day Weather Forecast

Advertisements
Track Severe Weather on mobile